MED108 LIPX-LIRF
Flight info
| Callsign | MED108 |
|---|---|
| Flight time | N/A |
| Altitude | 35000 |
| Route | LUMAV M726 GAVRA Y345 RITEB |
| Aircraft | B738/M-SDE2E3FGHIRWXY/LB1 |
Departure
| Time | 2026-05-04 08:54 |
|---|---|
| Airport | Verona Villafranca Valerio Catullo Airport (LIPX) |
Arrival
| Time | N/A |
|---|---|
| Airport | Rome–Fiumicino Leonardo da Vinci International Airport (LIRF) |
| Time | Latitude | Longitude | Altitude | Speed | Heading |
|---|---|---|---|---|---|
| 2026-05-04 08:41 | 45.40325 | 10.90414 | 236 ft | 0 kts | 135° |
| 2026-05-04 08:48 | 45.40329 | 10.90409 | 236 ft | 2 kts | 135° |
| 2026-05-04 08:48 | 45.40341 | 10.90392 | 240 ft | 2 kts | 135° |
| 2026-05-04 08:49 | 45.40353 | 10.90376 | 241 ft | 2 kts | 135° |
| 2026-05-04 08:50 | 45.40368 | 10.90355 | 241 ft | 0 kts | 135° |
| 2026-05-04 08:51 | 45.40366 | 10.90360 | 241 ft | 2 kts | 126° |
| 2026-05-04 08:51 | 45.40380 | 10.90405 | 238 ft | 9 kts | 43° |
| 2026-05-04 08:52 | 45.40451 | 10.90482 | 237 ft | 15 kts | 37° |
| 2026-05-04 08:52 | 45.40534 | 10.90572 | 236 ft | 15 kts | 37° |
| 2026-05-04 08:52 | 45.40592 | 10.90619 | 238 ft | 9 kts | 12° |
| 2026-05-04 08:52 | 45.40632 | 10.90565 | 236 ft | 9 kts | 270° |
| 2026-05-04 08:53 | 45.40626 | 10.90477 | 237 ft | 9 kts | 265° |
| 2026-05-04 08:54 | 45.39016 | 10.88067 | 847 ft | 174 kts | 224° |
| 2026-05-04 08:55 | 45.38170 | 10.86966 | 2273 ft | 160 kts | 225° |
| 2026-05-04 08:55 | 45.37620 | 10.85439 | 3083 ft | 193 kts | 254° |
| 2026-05-04 08:55 | 45.37185 | 10.83478 | 3424 ft | 224 kts | 250° |
| 2026-05-04 08:55 | 45.36628 | 10.81335 | 3891 ft | 245 kts | 249° |
| 2026-05-04 08:57 | 45.27823 | 10.75942 | 9970 ft | 289 kts | 123° |
| 2026-05-04 09:01 | 45.14281 | 11.18010 | 19268 ft | 372 kts | 117° |
| 2026-05-04 09:01 | 45.13187 | 11.21357 | 19827 ft | 376 kts | 116° |
| 2026-05-04 09:01 | 45.11915 | 11.24602 | 20381 ft | 379 kts | 126° |
| 2026-05-04 09:01 | 45.10249 | 11.27503 | 20937 ft | 381 kts | 136° |
| 2026-05-04 09:02 | 45.08261 | 11.30002 | 21479 ft | 384 kts | 141° |
| 2026-05-04 09:02 | 45.06188 | 11.32417 | 22015 ft | 389 kts | 142° |
| 2026-05-04 09:02 | 45.04081 | 11.34851 | 22538 ft | 393 kts | 142° |
| 2026-05-04 09:02 | 45.01958 | 11.37328 | 23062 ft | 397 kts | 142° |
| 2026-05-04 09:03 | 44.99848 | 11.39817 | 23578 ft | 401 kts | 141° |
| 2026-05-04 09:03 | 44.97704 | 11.42359 | 24027 ft | 405 kts | 141° |
| 2026-05-04 09:03 | 44.95533 | 11.44936 | 24482 ft | 408 kts | 141° |
| 2026-05-04 09:03 | 44.93354 | 11.47514 | 24938 ft | 411 kts | 142° |
| 2026-05-04 09:04 | 44.91152 | 11.50114 | 25366 ft | 414 kts | 142° |
| 2026-05-04 09:04 | 44.88939 | 11.52723 | 25803 ft | 416 kts | 142° |
| 2026-05-04 09:04 | 44.86712 | 11.55348 | 26211 ft | 420 kts | 142° |
| 2026-05-04 09:04 | 44.84459 | 11.57989 | 26615 ft | 422 kts | 144° |
| 2026-05-04 09:05 | 44.82000 | 11.60252 | 26997 ft | 422 kts | 155° |
| 2026-05-04 09:05 | 44.79301 | 11.61856 | 27405 ft | 422 kts | 165° |
| 2026-05-04 09:05 | 44.76452 | 11.62789 | 27797 ft | 421 kts | 174° |
| 2026-05-04 09:05 | 44.73555 | 11.63367 | 28209 ft | 422 kts | 175° |
| 2026-05-04 09:06 | 44.70624 | 11.63910 | 28584 ft | 425 kts | 175° |
| 2026-05-04 09:07 | 44.50118 | 11.68048 | 31699 ft | 422 kts | 175° |
| 2026-05-04 09:08 | 44.47215 | 11.68628 | 32125 ft | 421 kts | 175° |
| 2026-05-04 09:08 | 44.44313 | 11.69207 | 32555 ft | 420 kts | 175° |
| 2026-05-04 09:08 | 44.41418 | 11.69785 | 32948 ft | 419 kts | 174° |
| 2026-05-04 09:08 | 44.38534 | 11.70361 | 33332 ft | 419 kts | 174° |
| 2026-05-04 09:09 | 44.35654 | 11.70936 | 33723 ft | 418 kts | 174° |
| 2026-05-04 09:09 | 44.32770 | 11.71512 | 34093 ft | 417 kts | 174° |
| 2026-05-04 09:09 | 44.29904 | 11.72084 | 34420 ft | 417 kts | 174° |
| 2026-05-04 09:09 | 44.27028 | 11.72658 | 34738 ft | 416 kts | 174° |
| 2026-05-04 09:10 | 44.24170 | 11.73227 | 35058 ft | 415 kts | 174° |
| 2026-05-04 09:10 | 44.18404 | 11.74374 | 35153 ft | 422 kts | 174° |
| 2026-05-04 09:11 | 44.12626 | 11.75528 | 35138 ft | 415 kts | 174° |
| 2026-05-04 09:11 | 44.06927 | 11.76665 | 35144 ft | 412 kts | 175° |
| 2026-05-04 09:12 | 44.01250 | 11.77792 | 35150 ft | 413 kts | 175° |
| 2026-05-04 09:14 | 43.78503 | 11.82321 | 34560 ft | 407 kts | 175° |
| 2026-05-04 09:14 | 43.75724 | 11.83008 | 34179 ft | 405 kts | 172° |
| 2026-05-04 09:14 | 43.72980 | 11.83853 | 33781 ft | 403 kts | 171° |
| 2026-05-04 09:14 | 43.70257 | 11.84745 | 33366 ft | 401 kts | 170° |
| 2026-05-04 09:15 | 43.67558 | 11.85641 | 32990 ft | 398 kts | 170° |
| 2026-05-04 09:15 | 43.64874 | 11.86528 | 32587 ft | 395 kts | 170° |
| 2026-05-04 09:15 | 43.62211 | 11.87397 | 32251 ft | 392 kts | 170° |
| 2026-05-04 09:15 | 43.59563 | 11.88253 | 31850 ft | 390 kts | 170° |
| 2026-05-04 09:17 | 43.38751 | 11.94869 | 28785 ft | 375 kts | 169° |
| 2026-05-04 09:18 | 43.36210 | 11.95672 | 28379 ft | 373 kts | 169° |
| 2026-05-04 09:18 | 43.33696 | 11.96467 | 27996 ft | 372 kts | 169° |
| 2026-05-04 09:18 | 43.31172 | 11.97263 | 27614 ft | 370 kts | 169° |
| 2026-05-04 09:18 | 43.28670 | 11.98052 | 27237 ft | 368 kts | 169° |
| 2026-05-04 09:19 | 43.26171 | 11.98839 | 26866 ft | 367 kts | 169° |
| 2026-05-04 09:19 | 43.23716 | 11.99612 | 26480 ft | 366 kts | 169° |
| 2026-05-04 09:19 | 43.21239 | 12.00391 | 26113 ft | 364 kts | 169° |
| 2026-05-04 09:19 | 43.18776 | 12.01165 | 25738 ft | 363 kts | 169° |
| 2026-05-04 09:20 | 43.16288 | 12.01946 | 25362 ft | 362 kts | 168° |
| 2026-05-04 09:20 | 43.13867 | 12.02705 | 24999 ft | 361 kts | 168° |
| 2026-05-04 09:20 | 43.11392 | 12.03482 | 24622 ft | 360 kts | 168° |
| 2026-05-04 09:20 | 43.08982 | 12.04237 | 24264 ft | 360 kts | 168° |
| 2026-05-04 09:21 | 43.06540 | 12.05001 | 23895 ft | 359 kts | 168° |
| 2026-05-04 09:21 | 43.04123 | 12.05758 | 23471 ft | 353 kts | 168° |
| 2026-05-04 09:21 | 43.01727 | 12.06508 | 23080 ft | 352 kts | 168° |
| 2026-05-04 09:21 | 42.99363 | 12.07246 | 22691 ft | 350 kts | 168° |
| 2026-05-04 09:22 | 42.96984 | 12.07987 | 22352 ft | 348 kts | 168° |
| 2026-05-04 09:22 | 42.94632 | 12.08720 | 21966 ft | 347 kts | 168° |
| 2026-05-04 09:22 | 42.92276 | 12.09455 | 21626 ft | 345 kts | 168° |
| 2026-05-04 09:22 | 42.89948 | 12.10180 | 21261 ft | 344 kts | 168° |
| 2026-05-04 09:23 | 42.87614 | 12.10907 | 20903 ft | 343 kts | 168° |
| 2026-05-04 09:23 | 42.85290 | 12.11630 | 20543 ft | 342 kts | 168° |
| 2026-05-04 09:23 | 42.82971 | 12.12350 | 20176 ft | 341 kts | 168° |
| 2026-05-04 09:23 | 42.80671 | 12.13062 | 19827 ft | 340 kts | 168° |
| 2026-05-04 09:25 | 42.65206 | 12.20016 | 17311 ft | 336 kts | 150° |
| 2026-05-04 09:25 | 42.63211 | 12.21658 | 16952 ft | 335 kts | 150° |
| 2026-05-04 09:26 | 42.61225 | 12.23278 | 16588 ft | 331 kts | 150° |
| 2026-05-04 09:26 | 42.59270 | 12.24857 | 16221 ft | 322 kts | 150° |
| 2026-05-04 09:26 | 42.57393 | 12.26361 | 15898 ft | 312 kts | 151° |
| 2026-05-04 09:26 | 42.55519 | 12.27855 | 15559 ft | 305 kts | 151° |
| 2026-05-04 09:27 | 42.53730 | 12.29278 | 15246 ft | 301 kts | 151° |
| 2026-05-04 09:27 | 42.51903 | 12.30729 | 14935 ft | 301 kts | 150° |
| 2026-05-04 09:27 | 42.50110 | 12.32150 | 14612 ft | 302 kts | 151° |
| 2026-05-04 09:27 | 42.48291 | 12.33591 | 14288 ft | 304 kts | 150° |
| 2026-05-04 09:28 | 42.46463 | 12.35042 | 13950 ft | 305 kts | 150° |
| 2026-05-04 09:28 | 42.44632 | 12.36499 | 13571 ft | 306 kts | 150° |
| 2026-05-04 09:28 | 42.42791 | 12.37965 | 13218 ft | 306 kts | 150° |
| 2026-05-04 09:28 | 42.40952 | 12.39427 | 12876 ft | 306 kts | 150° |
| 2026-05-04 09:29 | 42.39127 | 12.40876 | 12684 ft | 301 kts | 150° |
| 2026-05-04 09:29 | 42.37335 | 12.42300 | 12558 ft | 295 kts | 150° |
| 2026-05-04 09:29 | 42.35546 | 12.43598 | 12300 ft | 292 kts | 159° |
| 2026-05-04 09:29 | 42.33614 | 12.44462 | 11978 ft | 292 kts | 164° |
| 2026-05-04 09:30 | 42.31661 | 12.45218 | 11676 ft | 291 kts | 164° |
| 2026-05-04 09:30 | 42.29718 | 12.45991 | 11367 ft | 292 kts | 164° |
| 2026-05-04 09:30 | 42.27767 | 12.46792 | 11065 ft | 293 kts | 163° |
| 2026-05-04 09:30 | 42.25817 | 12.47535 | 10867 ft | 288 kts | 172° |
| 2026-05-04 09:31 | 42.23863 | 12.47367 | 10724 ft | 281 kts | 197° |
| 2026-05-04 09:31 | 42.22158 | 12.46143 | 10495 ft | 279 kts | 220° |
| 2026-05-04 09:31 | 42.20899 | 12.44172 | 10237 ft | 280 kts | 239° |
| 2026-05-04 09:31 | 42.20176 | 12.41757 | 9937 ft | 282 kts | 251° |
| 2026-05-04 09:32 | 42.19624 | 12.39176 | 9600 ft | 284 kts | 259° |
| 2026-05-04 09:32 | 42.19733 | 12.36526 | 9289 ft | 287 kts | 285° |
| 2026-05-04 09:34 | 42.31302 | 12.28830 | 8422 ft | 259 kts | 342° |
| 2026-05-04 09:34 | 42.33015 | 12.28110 | 8308 ft | 256 kts | 341° |
| 2026-05-04 09:34 | 42.34716 | 12.27395 | 8206 ft | 257 kts | 342° |
| 2026-05-04 09:34 | 42.36428 | 12.26667 | 8106 ft | 258 kts | 341° |
| 2026-05-04 09:35 | 42.38146 | 12.25940 | 7999 ft | 259 kts | 341° |
| 2026-05-04 09:35 | 42.39834 | 12.25076 | 7875 ft | 261 kts | 325° |
| 2026-05-04 09:35 | 42.41051 | 12.23322 | 7775 ft | 256 kts | 294° |
| 2026-05-04 09:35 | 42.41457 | 12.21044 | 7647 ft | 247 kts | 265° |
| 2026-05-04 09:37 | 42.35272 | 12.10568 | 6971 ft | 225 kts | 165° |
| 2026-05-04 09:37 | 42.33791 | 12.11191 | 6874 ft | 222 kts | 163° |
| 2026-05-04 09:38 | 42.32328 | 12.11837 | 6761 ft | 220 kts | 163° |
| 2026-05-04 09:38 | 42.30876 | 12.12473 | 6683 ft | 222 kts | 163° |
| 2026-05-04 09:38 | 42.29358 | 12.13134 | 6350 ft | 234 kts | 163° |
| 2026-05-04 09:38 | 42.27769 | 12.13808 | 5891 ft | 245 kts | 164° |
| 2026-05-04 09:39 | 42.26123 | 12.14512 | 5659 ft | 248 kts | 163° |
| 2026-05-04 09:39 | 42.24486 | 12.15210 | 5428 ft | 244 kts | 163° |
| 2026-05-04 09:39 | 42.22883 | 12.15895 | 5242 ft | 238 kts | 163° |
| 2026-05-04 09:39 | 42.21314 | 12.16556 | 5027 ft | 235 kts | 163° |